Time;durP1;ratioP1;P1;durP2;ratioP2;P2;SDS_P1;SDS_P2;PMS_P1;PMS_P2;Temp;Humidity;BMP_temperature;BMP_pressure;BME280_temperature;BME280_humidity;BME280_pressure;Samples;Min_cycle;Max_cycle;Signal;HPM_P1;HPM_P2
2022/12/25 00:00:26;;;;;;;;;;;;;;;6.85;100.00;100777.31;5569921;32;33514;-70
2022/12/25 00:03:37;;;;;;;;;;;;;;;6.92;100.00;100789.00;5555684;32;33140;-70
2022/12/25 00:06:45;;;;;;;;;;;;;;;6.86;100.00;100798.28;5569918;32;34401;-70
2022/12/25 00:09:53;;;;;;;;;;;;;;;6.82;100.00;100799.53;5556227;32;33723;-70
2022/12/25 00:13:00;;;;;;;;;;;;;;;6.76;100.00;100804.47;5555908;32;34115;-70
2022/12/25 00:16:08;;;;;;;;;;;;;;;6.85;100.00;100806.31;5569733;32;34287;-70
2022/12/25 00:19:12;;;;;;;;;;;;;;;6.76;100.00;100796.56;5569605;32;34322;-70
2022/12/25 00:22:21;;;;;;;;;;;;;;;6.75;100.00;100795.72;5569600;32;33598;-70
2022/12/25 00:25:28;;;;;;;;;;;;;;;6.97;100.00;100813.19;5569529;32;33742;-69
2022/12/25 00:28:33;;;;;;;;;;;;;;;7.11;100.00;100822.50;5569470;32;33689;-69
2022/12/25 00:31:41;;;;;;;;;;;;;;;7.24;100.00;100831.84;5569453;32;34321;-70
2022/12/25 00:34:48;;;;;;;;;;;;;;;7.26;100.00;100831.72;5569271;32;33848;-71
2022/12/25 00:37:53;;;;;;;;;;;;;;;7.03;100.00;100831.09;5569987;31;33672;-70
2022/12/25 00:41:04;;;;;;;;;;;;;;;6.85;100.00;100841.44;5575711;32;34323;-70
2022/12/25 00:44:12;;;;;;;;;;;;;;;6.68;100.00;100831.50;5562177;32;33522;-69
2022/12/25 00:47:16;;;;;;;;;;;;;;;6.60;100.00;100841.03;5575598;32;34380;-70
2022/12/25 00:50:19;;;;;;;;;;;;;;;6.55;100.00;100834.34;5575723;32;34141;-70
2022/12/25 00:53:23;;;;;;;;;;;;;;;6.52;100.00;100847.81;5575704;32;33524;-70
2022/12/25 00:56:27;;;;;;;;;;;;;;;6.35;100.00;100848.38;5575496;32;33682;-70
2022/12/25 00:59:33;;;;;;;;;;;;;;;6.27;100.00;100852.62;5575497;32;33897;-69
2022/12/25 01:02:38;;;;;;;;;;;;;;;6.15;100.00;100845.78;5575403;32;34000;-70
2022/12/25 01:05:43;;;;;;;;;;;;;;;6.07;100.00;100846.38;5575353;32;34338;-70
2022/12/25 01:12:15;;;;;;;;;;;;;;;5.96;100.00;100860.44;5561355;32;33468;-69
2022/12/25 01:15:22;;;;;;;;;;;;;;;6.06;100.00;100857.87;5574992;32;33729;-68
2022/12/25 01:18:29;;;;;;;;;;;;;;;6.19;100.00;100860.34;5575033;32;33627;-69
2022/12/25 01:21:35;;;;;;;;;;;;;;;6.18;100.00;100863.94;5574986;32;34220;-69
2022/12/25 01:24:43;;;;;;;;;;;;;;;6.10;100.00;100861.94;5574910;32;33866;-69
2022/12/25 01:27:50;;;;;;;;;;;;;;;6.05;100.00;100875.47;5574855;32;34365;-70
2022/12/25 01:30:58;;;;;;;;;;;;;;;6.01;100.00;100876.69;5574900;32;33546;-69
2022/12/25 01:34:05;;;;;;;;;;;;;;;5.94;100.00;100879.97;5574785;32;33685;-69
2022/12/25 01:37:13;;;;;;;;;;;;;;;5.86;100.00;100877.91;5574637;32;33677;-69
2022/12/25 01:40:20;;;;;;;;;;;;;;;5.84;100.00;100879.03;5574527;32;34510;-69
2022/12/25 01:43:30;;;;;;;;;;;;;;;5.85;100.00;100884.19;5574660;32;33481;-69
2022/12/25 01:46:39;;;;;;;;;;;;;;;5.88;100.00;100894.47;5574408;32;34387;-69
2022/12/25 01:49:49;;;;;;;;;;;;;;;5.81;100.00;100902.97;5573577;32;33626;-68
2022/12/25 01:52:55;;;;;;;;;;;;;;;5.74;100.00;100881.56;5570992;32;33709;-69
2022/12/25 01:56:05;;;;;;;;;;;;;;;5.72;100.00;100872.09;5570926;32;33703;-70
2022/12/25 01:59:13;;;;;;;;;;;;;;;5.65;100.00;100874.44;5557117;32;34751;-69
2022/12/25 02:02:20;;;;;;;;;;;;;;;5.59;100.00;100880.16;5571204;32;34062;-69
2022/12/25 02:05:32;;;;;;;;;;;;;;;5.55;100.00;100887.50;5571112;32;34110;-70
2022/12/25 02:08:40;;;;;;;;;;;;;;;5.53;100.00;100884.13;5557774;32;34301;-70
2022/12/25 02:11:55;;;;;;;;;;;;;;;5.48;100.00;100881.03;5570880;32;33335;-69
2022/12/25 02:15:06;;;;;;;;;;;;;;;5.41;100.00;100877.22;5570846;32;33734;-69
2022/12/25 02:18:17;;;;;;;;;;;;;;;5.38;100.00;100876.63;5570797;32;33683;-69
2022/12/25 02:21:43;;;;;;;;;;;;;;;5.30;100.00;100884.28;5570868;32;34286;-69
2022/12/25 02:25:03;;;;;;;;;;;;;;;5.30;100.00;100877.25;5570711;32;34529;-70
2022/12/25 02:28:13;;;;;;;;;;;;;;;5.15;100.00;100878.44;5570732;32;34267;-69
2022/12/25 02:31:29;;;;;;;;;;;;;;;5.03;100.00;100872.38;5557513;32;33701;-69
2022/12/25 02:34:55;;;;;;;;;;;;;;;5.01;100.00;100884.81;5570633;32;34141;-69
2022/12/25 02:38:07;;;;;;;;;;;;;;;5.00;100.00;100891.00;5570538;32;33751;-70
2022/12/25 02:41:14;;;;;;;;;;;;;;;5.00;100.00;100903.31;5556752;32;33740;-69
2022/12/25 03:08:29;;;;;;;;;;;;;;;5.10;100.00;100914.78;5570369;32;34339;-69
2022/12/25 03:11:38;;;;;;;;;;;;;;;4.97;100.00;100920.19;5570510;32;34013;-69
2022/12/25 03:18:17;;;;;;;;;;;;;;;4.91;100.00;100932.94;5570166;32;33680;-69
2022/12/25 03:28:18;;;;;;;;;;;;;;;4.72;100.00;100933.53;5570317;32;34290;-70
2022/12/25 03:31:32;;;;;;;;;;;;;;;4.80;100.00;100931.97;5570257;32;33672;-70
2022/12/25 04:37:07;;;;;;;;;;;;;;;4.64;100.00;100962.19;5569450;32;33662;-69
2022/12/25 04:40:15;;;;;;;;;;;;;;;4.62;100.00;100964.91;5569336;32;33696;-69
2022/12/25 04:43:24;;;;;;;;;;;;;;;4.60;100.00;100948.41;5569255;32;33592;-70
2022/12/25 04:46:32;;;;;;;;;;;;;;;4.68;100.00;100946.06;5568965;31;34056;-70
2022/12/25 04:49:39;;;;;;;;;;;;;;;4.64;100.00;100943.78;5569218;32;34108;-69
2022/12/25 04:52:48;;;;;;;;;;;;;;;4.64;100.00;100951.69;5569112;32;33712;-69
2022/12/25 04:56:04;;;;;;;;;;;;;;;4.68;100.00;100961.84;5569100;32;34293;-70
2022/12/25 04:59:11;;;;;;;;;;;;;;;4.64;100.00;100962.19;5569152;32;34174;-70
2022/12/25 05:02:20;;;;;;;;;;;;;;;4.61;100.00;100972.91;5568992;32;33992;-70
2022/12/25 05:05:29;;;;;;;;;;;;;;;4.49;100.00;100966.81;5568930;32;33673;-70
2022/12/25 05:08:39;;;;;;;;;;;;;;;4.32;100.00;100972.44;5555219;32;33592;-70
2022/12/25 05:11:49;;;;;;;;;;;;;;;4.17;100.00;100963.91;5568881;32;33755;-70
2022/12/25 05:14:58;;;;;;;;;;;;;;;4.05;100.00;100971.88;5568844;32;33612;-69
2022/12/25 05:18:06;;;;;;;;;;;;;;;4.02;100.00;100980.78;5568671;32;34415;-70
2022/12/25 05:21:12;;;;;;;;;;;;;;;3.90;100.00;100985.16;5568638;32;34401;-71
2022/12/25 05:24:25;;;;;;;;;;;;;;;3.76;100.00;100989.72;5568926;32;34409;-70
2022/12/25 05:27:30;;;;;;;;;;;;;;;3.66;100.00;100978.19;5571278;32;33820;-71
2022/12/25 05:30:42;;;;;;;;;;;;;;;3.58;100.00;100978.75;5571224;32;34345;-70
2022/12/25 05:33:52;;;;;;;;;;;;;;;3.57;100.00;100976.22;5571073;32;33724;-70
2022/12/25 05:36:59;;;;;;;;;;;;;;;3.48;100.00;100977.72;5571069;32;33621;-69
2022/12/25 05:40:08;;;;;;;;;;;;;;;3.43;100.00;100983.28;5571201;32;33696;-68
2022/12/25 05:43:16;;;;;;;;;;;;;;;3.34;100.00;100996.19;5570993;32;34089;-70
2022/12/25 05:46:23;;;;;;;;;;;;;;;3.25;100.00;100989.78;5570892;32;33602;-69
2022/12/25 05:49:31;;;;;;;;;;;;;;;3.22;100.00;100997.03;5571184;32;33553;-69
2022/12/25 05:52:40;;;;;;;;;;;;;;;3.16;100.00;100995.66;5571046;32;33671;-70
2022/12/25 05:55:46;;;;;;;;;;;;;;;3.13;100.00;100997.66;5571017;32;34254;-69
2022/12/25 05:58:51;;;;;;;;;;;;;;;3.02;100.00;101008.88;5570798;32;34153;-69
2022/12/25 06:01:58;;;;;;;;;;;;;;;2.98;100.00;101013.50;5556955;32;33908;-70
2022/12/25 06:05:08;;;;;;;;;;;;;;;2.94;100.00;101004.19;5570850;32;34403;-69
2022/12/25 06:08:16;;;;;;;;;;;;;;;2.90;100.00;101007.94;5570820;32;33657;-70
2022/12/25 06:11:23;;;;;;;;;;;;;;;2.88;100.00;101014.22;5570932;32;33683;-69
2022/12/25 06:14:30;;;;;;;;;;;;;;;2.82;100.00;101012.84;5570945;32;33966;-69
2022/12/25 06:17:37;;;;;;;;;;;;;;;2.81;100.00;101007.72;5570958;32;33901;-69
2022/12/25 06:20:44;;;;;;;;;;;;;;;2.79;100.00;101006.97;5570865;32;34151;-70
2022/12/25 06:23:51;;;;;;;;;;;;;;;2.78;100.00;101007.91;5570878;32;34270;-70
2022/12/25 06:26:59;;;;;;;;;;;;;;;2.74;100.00;101001.22;5570764;32;33625;-69
2022/12/25 06:30:06;;;;;;;;;;;;;;;2.68;100.00;101004.22;5570829;32;33544;-69
2022/12/25 06:33:13;;;;;;;;;;;;;;;2.72;100.00;101017.03;5570704;32;33684;-69
2022/12/25 06:36:26;;;;;;;;;;;;;;;2.67;100.00;101021.72;5569910;32;33692;-69
2022/12/25 06:39:33;;;;;;;;;;;;;;;2.74;100.00;101032.66;5570378;32;33887;-70
2022/12/25 06:42:40;;;;;;;;;;;;;;;2.74;100.00;101022.16;5570571;32;33639;-69
2022/12/25 06:45:46;;;;;;;;;;;;;;;2.79;100.00;101023.53;5570177;32;33731;-70
2022/12/25 06:48:53;;;;;;;;;;;;;;;2.76;100.00;101021.09;5570246;32;34061;-68
2022/12/25 06:52:00;;;;;;;;;;;;;;;2.77;100.00;101027.19;5570584;32;34313;-68
2022/12/25 06:55:08;;;;;;;;;;;;;;;2.78;100.00;101032.34;5570575;32;34302;-69
2022/12/25 06:58:16;;;;;;;;;;;;;;;2.74;100.00;101043.13;5570295;32;34142;-69
2022/12/25 07:01:25;;;;;;;;;;;;;;;2.72;100.00;101045.84;5570369;32;33584;-69
2022/12/25 07:04:39;;;;;;;;;;;;;;;2.82;100.00;101048.69;5570359;32;34323;-69
2022/12/25 07:07:47;;;;;;;;;;;;;;;2.87;100.00;101052.69;5570450;32;34127;-70
2022/12/25 07:10:55;;;;;;;;;;;;;;;2.84;100.00;101049.44;5570719;32;33845;-69
2022/12/25 07:14:02;;;;;;;;;;;;;;;2.88;100.00;101056.16;5570552;32;33772;-70
2022/12/25 07:17:09;;;;;;;;;;;;;;;2.95;100.00;101068.72;5570358;32;34117;-69
2022/12/25 07:20:14;;;;;;;;;;;;;;;2.96;100.00;101070.41;5570352;32;33591;-71
2022/12/25 07:23:21;;;;;;;;;;;;;;;2.97;100.00;101076.50;5570502;32;33740;-70
2022/12/25 07:26:29;;;;;;;;;;;;;;;3.06;100.00;101091.59;5556461;32;32414;-70
2022/12/25 07:29:38;;;;;;;;;;;;;;;3.22;100.00;101086.19;5570732;32;34020;-70
2022/12/25 07:32:45;;;;;;;;;;;;;;;3.43;100.00;101096.06;5570251;32;34372;-69
2022/12/25 07:35:56;;;;;;;;;;;;;;;3.46;100.00;101102.88;5569985;32;34157;-69
2022/12/25 07:39:03;;;;;;;;;;;;;;;3.44;100.00;101104.75;5569861;32;33727;-69
2022/12/25 07:42:11;;;;;;;;;;;;;;;3.46;100.00;101105.50;5570102;32;33620;-70
2022/12/25 07:45:19;;;;;;;;;;;;;;;3.45;100.00;101117.75;5569700;32;34291;-70
2022/12/25 07:48:25;;;;;;;;;;;;;;;3.53;100.00;101111.19;5569924;32;33833;-70
2022/12/25 07:51:32;;;;;;;;;;;;;;;3.65;100.00;101115.56;5556318;32;33652;-69
2022/12/25 07:54:39;;;;;;;;;;;;;;;3.73;100.00;101123.75;5569995;32;33809;-71
2022/12/25 07:57:46;;;;;;;;;;;;;;;3.83;100.00;101128.25;5569911;32;34063;-69
2022/12/25 08:00:54;;;;;;;;;;;;;;;3.93;100.00;101128.44;5555954;32;32033;-70
2022/12/25 08:04:01;;;;;;;;;;;;;;;4.08;100.00;101122.13;5569529;32;34338;-69
2022/12/25 08:07:09;;;;;;;;;;;;;;;4.21;100.00;101127.38;5556198;32;33417;-70
2022/12/25 08:10:16;;;;;;;;;;;;;;;4.24;100.00;101135.84;5569873;32;34247;-70
2022/12/25 08:13:23;;;;;;;;;;;;;;;4.32;100.00;101143.19;5569778;32;33750;-71
2022/12/25 08:16:31;;;;;;;;;;;;;;;4.37;100.00;101136.66;5569695;32;34096;-70
2022/12/25 08:19:39;;;;;;;;;;;;;;;4.42;100.00;101136.31;5569701;32;33893;-70
2022/12/25 08:22:49;;;;;;;;;;;;;;;4.36;100.00;101128.87;5569624;32;33635;-71
2022/12/25 08:25:59;;;;;;;;;;;;;;;4.42;100.00;101141.59;5569450;32;33823;-70
2022/12/25 08:29:11;;;;;;;;;;;;;;;4.47;100.00;101136.84;5569340;32;33624;-71
2022/12/25 08:32:23;;;;;;;;;;;;;;;4.56;100.00;101143.22;5569413;32;33793;-69
2022/12/25 08:35:35;;;;;;;;;;;;;;;4.58;100.00;101139.53;5569237;32;33816;-70
2022/12/25 08:38:44;;;;;;;;;;;;;;;4.45;100.00;101138.75;5569289;32;33658;-71
2022/12/25 08:41:51;;;;;;;;;;;;;;;4.46;100.00;101152.69;5556206;32;34312;-71
2022/12/25 08:44:58;;;;;;;;;;;;;;;4.34;100.00;101155.28;5556188;32;34194;-70
2022/12/25 08:48:05;;;;;;;;;;;;;;;4.46;100.00;101164.06;5569211;32;33637;-70
2022/12/25 08:51:15;;;;;;;;;;;;;;;4.47;100.00;101149.97;5569046;32;34036;-70
2022/12/25 08:54:25;;;;;;;;;;;;;;;4.50;100.00;101155.03;5555509;32;34057;-71
2022/12/25 08:57:31;;;;;;;;;;;;;;;4.47;100.00;101160.47;5568821;32;34279;-70
2022/12/25 09:00:41;;;;;;;;;;;;;;;4.47;100.00;101152.59;5570694;32;33730;-70
2022/12/25 09:03:50;;;;;;;;;;;;;;;4.51;100.00;101161.94;5557529;32;33224;-70
2022/12/25 09:06:56;;;;;;;;;;;;;;;4.54;100.00;101155.63;5568580;32;33976;-69
2022/12/25 09:10:06;;;;;;;;;;;;;;;4.65;100.00;101164.41;5571329;32;33677;-71
2022/12/25 09:13:13;;;;;;;;;;;;;;;4.75;100.00;101151.44;5557231;32;34398;-71
2022/12/25 09:16:21;;;;;;;;;;;;;;;4.84;100.00;101153.44;5571668;32;33697;-70
2022/12/25 09:19:29;;;;;;;;;;;;;;;4.97;100.00;101159.44;5571286;32;34573;-70
2022/12/25 09:22:36;;;;;;;;;;;;;;;5.14;100.00;101150.28;5557638;32;32746;-70
2022/12/25 09:25:43;;;;;;;;;;;;;;;5.29;100.00;101158.84;5556909;32;34032;-71
2022/12/25 09:28:49;;;;;;;;;;;;;;;5.38;100.00;101155.50;5557341;32;34494;-70
2022/12/25 09:31:56;;;;;;;;;;;;;;;5.49;100.00;101156.38;5571287;32;33693;-71
2022/12/25 09:35:05;;;;;;;;;;;;;;;5.60;100.00;101158.22;5571079;32;33792;-71
2022/12/25 09:38:16;;;;;;;;;;;;;;;5.83;100.00;101162.56;5558226;32;33610;-71
2022/12/25 09:41:56;;;;;;;;;;;;;;;6.20;100.00;101157.91;5571114;32;33719;-70
2022/12/25 09:45:10;;;;;;;;;;;;;;;6.63;100.00;101168.53;5538501;32;34201;-70
2022/12/25 09:48:19;;;;;;;;;;;;;;;6.88;100.00;101167.38;5557671;32;33695;-70
2022/12/25 09:51:33;;;;;;;;;;;;;;;7.09;100.00;101168.25;5571131;32;33619;-70
2022/12/25 09:54:51;;;;;;;;;;;;;;;7.34;100.00;101156.50;5571093;32;33828;-71
2022/12/25 09:57:59;;;;;;;;;;;;;;;7.64;100.00;101158.38;5557530;32;33734;-71
2022/12/25 10:01:11;;;;;;;;;;;;;;;8.01;100.00;101150.78;5570748;32;33724;-70
2022/12/25 10:04:30;;;;;;;;;;;;;;;8.19;100.00;101157.94;5570800;32;34091;-70
2022/12/25 10:07:49;;;;;;;;;;;;;;;8.36;100.00;101156.53;5556818;32;32434;-69
2022/12/25 10:11:13;;;;;;;;;;;;;;;8.45;100.00;101155.72;5569854;32;33714;-71
2022/12/25 10:14:26;;;;;;;;;;;;;;;8.63;100.00;101158.53;5570825;32;34401;-71
2022/12/25 10:17:40;;;;;;;;;;;;;;;8.81;100.00;101156.06;5570834;32;33650;-70
2022/12/25 10:20:51;;;;;;;;;;;;;;;8.93;100.00;101155.78;5557097;32;34768;-70
2022/12/25 10:23:58;;;;;;;;;;;;;;;9.07;100.00;101151.87;5570653;32;33760;-71
2022/12/25 10:27:07;;;;;;;;;;;;;;;9.21;100.00;101147.97;5570557;32;33721;-70
2022/12/25 10:30:22;;;;;;;;;;;;;;;9.28;100.00;101152.59;5557479;32;34039;-70
2022/12/25 10:33:31;;;;;;;;;;;;;;;9.23;100.00;101143.38;5570362;32;33738;-70
2022/12/25 10:36:40;;;;;;;;;;;;;;;9.25;100.00;101142.25;5556855;32;34104;-70
2022/12/25 10:39:54;;;;;;;;;;;;;;;9.13;100.00;101141.59;5570398;32;33897;-71
2022/12/25 10:43:20;;;;;;;;;;;;;;;9.07;100.00;101138.66;5556366;32;34310;-70
2022/12/25 10:46:27;;;;;;;;;;;;;;;8.99;100.00;101138.53;5569496;31;34274;-70
2022/12/25 10:49:35;;;;;;;;;;;;;;;8.91;100.00;101133.06;5555837;32;33513;-72
2022/12/25 10:52:50;;;;;;;;;;;;;;;8.95;100.00;101142.44;5556764;32;34342;-71
2022/12/25 10:56:04;;;;;;;;;;;;;;;8.96;100.00;101139.63;5557362;32;34457;-71
2022/12/25 10:59:10;;;;;;;;;;;;;;;8.90;100.00;101129.63;5556545;32;32427;-71
2022/12/25 11:02:20;;;;;;;;;;;;;;;8.96;100.00;101133.50;5570283;32;33753;-70
2022/12/25 11:05:27;;;;;;;;;;;;;;;9.02;100.00;101135.59;5570222;32;33753;-70
2022/12/25 11:08:35;;;;;;;;;;;;;;;9.07;100.00;101117.47;5570269;32;34215;-71
2022/12/25 11:11:40;;;;;;;;;;;;;;;9.13;100.00;101124.87;5570385;32;33590;-71
2022/12/25 11:15:00;;;;;;;;;;;;;;;9.20;100.00;101118.00;5570279;32;33628;-70
2022/12/25 11:18:18;;;;;;;;;;;;;;;9.34;100.00;101109.66;5569093;32;32293;-70
2022/12/25 11:21:31;;;;;;;;;;;;;;;9.46;100.00;101108.50;5570277;32;34209;-70
2022/12/25 11:24:37;;;;;;;;;;;;;;;9.50;100.00;101122.28;5569723;32;34250;-70
2022/12/25 11:27:42;;;;;;;;;;;;;;;9.58;100.00;101117.12;5543513;32;34060;-70
2022/12/25 11:30:56;;;;;;;;;;;;;;;9.72;100.00;101099.94;5570208;32;34160;-70
2022/12/25 11:34:05;;;;;;;;;;;;;;;9.80;100.00;101095.59;5569977;32;34366;-70
2022/12/25 11:37:23;;;;;;;;;;;;;;;9.90;100.00;101098.19;5570045;32;33638;-71
2022/12/25 11:40:28;;;;;;;;;;;;;;;10.00;100.00;101099.00;5570003;32;34207;-70
2022/12/25 11:43:39;;;;;;;;;;;;;;;10.08;100.00;101092.94;5556200;32;33697;-70
2022/12/25 11:46:50;;;;;;;;;;;;;;;10.17;100.00;101097.38;5569822;32;33766;-70
2022/12/25 11:50:03;;;;;;;;;;;;;;;10.28;100.00;101095.38;5569967;32;33677;-69
2022/12/25 11:53:17;;;;;;;;;;;;;;;10.35;100.00;101091.16;5569956;32;33605;-70
2022/12/25 11:56:25;;;;;;;;;;;;;;;10.41;100.00;101097.66;5569418;32;33849;-70
2022/12/25 11:59:37;;;;;;;;;;;;;;;10.46;100.00;101093.59;5569946;32;33687;-71
2022/12/25 12:02:45;;;;;;;;;;;;;;;10.49;100.00;101092.47;5569773;32;33691;-71
2022/12/25 12:06:01;;;;;;;;;;;;;;;10.53;100.00;101087.69;5569779;32;33661;-71
2022/12/25 12:09:16;;;;;;;;;;;;;;;10.72;100.00;101088.37;5556277;32;34043;-70
2022/12/25 12:12:30;;;;;;;;;;;;;;;11.02;100.00;101094.31;5569810;32;34295;-70
2022/12/25 12:15:40;;;;;;;;;;;;;;;11.40;100.00;101077.16;5569579;32;34358;-71
2022/12/25 12:18:44;;;;;;;;;;;;;;;11.71;100.00;101084.47;5543288;32;33782;-72
2022/12/25 12:21:56;;;;;;;;;;;;;;;11.86;100.00;101087.41;5569678;32;34249;-71
2022/12/25 12:25:05;;;;;;;;;;;;;;;11.69;100.00;101089.12;5569416;32;33705;-70
2022/12/25 12:28:18;;;;;;;;;;;;;;;11.57;100.00;101090.38;5569797;32;33804;-70
2022/12/25 12:31:24;;;;;;;;;;;;;;;11.39;100.00;101091.41;5569742;32;34085;-70
2022/12/25 12:34:29;;;;;;;;;;;;;;;11.51;100.00;101092.84;5568709;32;33230;-74
2022/12/25 12:37:38;;;;;;;;;;;;;;;11.79;100.00;101093.53;5569335;32;33716;-71
2022/12/25 12:40:58;;;;;;;;;;;;;;;11.85;97.94;101092.91;5569265;32;34358;-70
2022/12/25 12:44:06;;;;;;;;;;;;;;;11.67;99.90;101084.94;5569039;32;34388;-71
2022/12/25 12:47:29;;;;;;;;;;;;;;;11.61;97.85;101091.75;5555214;32;33946;-71
2022/12/25 12:50:33;;;;;;;;;;;;;;;11.75;95.75;101090.34;5569088;32;33778;-71
2022/12/25 12:53:41;;;;;;;;;;;;;;;11.72;97.73;101098.59;5569359;32;34069;-71
2022/12/25 12:57:13;;;;;;;;;;;;;;;11.72;98.58;101098.59;5555579;32;33220;-70
2022/12/25 13:00:21;;;;;;;;;;;;;;;11.81;99.18;101103.03;5554777;32;33530;-70
2022/12/25 13:03:47;;;;;;;;;;;;;;;11.87;99.40;101106.84;5568988;32;34375;-70
2022/12/25 13:07:03;;;;;;;;;;;;;;;11.85;99.13;101106.19;5555163;32;35026;-70
2022/12/25 13:10:21;;;;;;;;;;;;;;;11.84;99.60;101109.84;5568948;32;34424;-70
2022/12/25 13:13:29;;;;;;;;;;;;;;;11.75;97.35;101117.78;5568755;32;34269;-70
2022/12/25 13:16:36;;;;;;;;;;;;;;;11.73;98.94;101114.44;5568693;32;34313;-70
2022/12/25 13:19:42;;;;;;;;;;;;;;;11.65;98.49;101109.03;5554968;32;34305;-70
2022/12/25 13:22:47;;;;;;;;;;;;;;;11.65;98.71;101102.91;5568375;32;33573;-70
2022/12/25 13:25:56;;;;;;;;;;;;;;;11.65;99.97;101100.25;5568482;32;34260;-70
2022/12/25 13:29:01;;;;;;;;;;;;;;;11.78;99.29;101092.69;5568319;32;34358;-70
2022/12/25 13:32:18;;;;;;;;;;;;;;;11.81;99.14;101095.06;5567971;32;34414;-71
2022/12/25 13:35:22;;;;;;;;;;;;;;;11.84;100.00;101102.69;5568747;32;34162;-70
2022/12/25 13:38:27;;;;;;;;;;;;;;;11.53;100.00;101117.41;5554443;32;32430;-70
2022/12/25 13:45:05;;;;;;;;;;;;;;;11.54;100.00;101109.31;5502992;32;1304828;-69
2022/12/25 13:48:14;;;;;;;;;;;;;;;11.55;100.00;101110.97;5570822;32;33548;-70
2022/12/25 13:51:19;;;;;;;;;;;;;;;11.50;100.00;101102.63;5571169;32;33457;-70
2022/12/25 13:54:25;;;;;;;;;;;;;;;11.29;100.00;101107.44;5571204;32;34060;-71
2022/12/25 13:57:33;;;;;;;;;;;;;;;11.13;100.00;101117.97;5571134;32;33738;-70
2022/12/25 14:00:38;;;;;;;;;;;;;;;11.02;100.00;101119.03;5570966;32;33719;-69
2022/12/25 14:03:45;;;;;;;;;;;;;;;11.15;100.00;101114.16;5571005;32;34039;-70
2022/12/25 14:06:53;;;;;;;;;;;;;;;11.14;100.00;101122.25;5570969;32;33988;-69
2022/12/25 14:10:01;;;;;;;;;;;;;;;11.06;100.00;101116.91;5570766;32;33736;-69
2022/12/25 14:13:08;;;;;;;;;;;;;;;11.00;100.00;101104.22;5557115;32;34060;-70
2022/12/25 14:16:20;;;;;;;;;;;;;;;11.04;100.00;101102.94;5570690;32;33676;-70
2022/12/25 14:19:29;;;;;;;;;;;;;;;11.00;100.00;101113.03;5557691;32;33623;-70
2022/12/25 14:22:34;;;;;;;;;;;;;;;10.88;100.00;101117.75;5570681;32;33676;-71
2022/12/25 14:25:42;;;;;;;;;;;;;;;10.76;100.00;101112.81;5570647;32;33614;-70
2022/12/25 14:28:47;;;;;;;;;;;;;;;10.70;100.00;101124.00;5556932;32;33416;-70
2022/12/25 14:31:56;;;;;;;;;;;;;;;10.54;100.00;101122.03;5570606;32;34247;-69
2022/12/25 14:35:05;;;;;;;;;;;;;;;10.45;100.00;101121.13;5570727;32;33670;-70
2022/12/25 14:38:16;;;;;;;;;;;;;;;10.32;100.00;101128.56;5557184;32;33773;-70
2022/12/25 14:41:43;;;;;;;;;;;;;;;10.27;100.00;101124.69;5570547;32;34535;-70
2022/12/25 14:45:15;;;;;;;;;;;;;;;10.26;100.00;101125.69;5570744;32;33851;-70
2022/12/25 14:48:22;;;;;;;;;;;;;;;10.13;100.00;101136.59;5533933;32;33796;-70
2022/12/25 14:51:32;;;;;;;;;;;;;;;10.07;100.00;101126.56;5570555;32;34133;-70
2022/12/25 14:54:43;;;;;;;;;;;;;;;10.07;100.00;101131.06;5556314;32;33903;-70
2022/12/25 14:57:52;;;;;;;;;;;;;;;10.02;100.00;101132.31;5555907;32;34538;-70
2022/12/25 15:01:03;;;;;;;;;;;;;;;9.99;100.00;101132.63;5556918;32;34308;-70
2022/12/25 15:04:09;;;;;;;;;;;;;;;9.96;100.00;101138.22;5556963;32;33522;-69
2022/12/25 15:07:23;;;;;;;;;;;;;;;9.89;100.00;101136.28;5556780;32;32024;-69
2022/12/25 15:10:32;;;;;;;;;;;;;;;9.84;100.00;101139.34;5570385;32;33575;-70
2022/12/25 15:13:58;;;;;;;;;;;;;;;9.83;100.00;101135.03;5546175;32;33762;-70
2022/12/25 15:17:03;;;;;;;;;;;;;;;9.89;100.00;101136.28;5570507;32;34218;-69
2022/12/25 15:20:11;;;;;;;;;;;;;;;9.63;100.00;101137.91;5556576;32;33839;-71
2022/12/25 15:23:15;;;;;;;;;;;;;;;9.53;100.00;101136.13;5556907;32;34313;-69
2022/12/25 15:26:24;;;;;;;;;;;;;;;9.43;100.00;101134.47;5570410;32;33726;-70
2022/12/25 15:29:27;;;;;;;;;;;;;;;9.30;100.00;101137.38;5556508;32;34815;-69
2022/12/25 15:32:52;;;;;;;;;;;;;;;9.13;100.00;101132.81;5545889;32;32809;-69
2022/12/25 15:35:57;;;;;;;;;;;;;;;8.91;100.00;101133.06;5570156;32;33596;-69
2022/12/25 15:39:04;;;;;;;;;;;;;;;8.91;100.00;101135.72;5556194;32;32104;-69
2022/12/25 15:42:16;;;;;;;;;;;;;;;8.84;100.00;101132.81;5569948;32;34294;-69
2022/12/25 15:45:26;;;;;;;;;;;;;;;8.84;100.00;101132.81;5569859;32;33623;-69
2022/12/25 15:48:33;;;;;;;;;;;;;;;8.80;100.00;101152.59;5569889;32;33605;-69
2022/12/25 15:51:41;;;;;;;;;;;;;;;8.72;100.00;101147.97;5569933;32;34267;-71
2022/12/25 15:54:50;;;;;;;;;;;;;;;8.78;100.00;101138.63;5569998;32;33769;-70
2022/12/25 15:57:58;;;;;;;;;;;;;;;8.85;100.00;101134.47;5556275;32;34562;-70
2022/12/25 16:01:04;;;;;;;;;;;;;;;8.65;100.00;101133.62;5569745;32;33570;-70
2022/12/25 16:04:11;;;;;;;;;;;;;;;8.56;100.00;101138.91;5569663;32;34016;-69
2022/12/25 16:07:19;;;;;;;;;;;;;;;8.52;100.00;101138.31;5569699;32;34207;-69
2022/12/25 16:10:24;;;;;;;;;;;;;;;8.53;100.00;101141.78;5555836;32;34507;-69
2022/12/25 16:13:37;;;;;;;;;;;;;;;8.60;100.00;101145.59;5569697;32;34270;-70
2022/12/25 16:16:42;;;;;;;;;;;;;;;8.61;100.00;101134.03;5556456;32;33661;-70
2022/12/25 16:19:50;;;;;;;;;;;;;;;8.61;100.00;101137.53;5569787;32;34090;-70
2022/12/25 16:22:58;;;;;;;;;;;;;;;8.63;100.00;101135.56;5570029;32;34044;-70
2022/12/25 16:26:05;;;;;;;;;;;;;;;8.65;100.00;101141.56;5569632;32;34074;-70
2022/12/25 16:29:13;;;;;;;;;;;;;;;8.67;100.00;101134.31;5569444;32;34324;-69
2022/12/25 16:32:22;;;;;;;;;;;;;;;8.68;100.00;101129.84;5555385;32;34795;-69
2022/12/25 16:35:29;;;;;;;;;;;;;;;8.69;100.00;101129.72;5569447;32;33642;-68
2022/12/25 16:38:36;;;;;;;;;;;;;;;8.68;100.00;101122.75;5569376;32;33826;-69
2022/12/25 16:41:45;;;;;;;;;;;;;;;8.69;100.00;101123.59;5555445;32;32150;-71
2022/12/25 16:44:50;;;;;;;;;;;;;;;8.66;100.00;101115.94;5569285;32;34291;-69
2022/12/25 16:47:59;;;;;;;;;;;;;;;8.65;100.00;101119.56;5569089;32;34137;-70
2022/12/25 16:51:08;;;;;;;;;;;;;;;8.67;100.00;101112.31;5569023;32;34243;-69
2022/12/25 16:54:15;;;;;;;;;;;;;;;8.59;100.00;101120.09;5568894;32;33729;-70
2022/12/25 16:57:23;;;;;;;;;;;;;;;8.52;100.00;101114.50;5555139;32;33572;-70
2022/12/25 17:00:32;;;;;;;;;;;;;;;8.53;100.00;101112.69;5568824;32;33785;-70
2022/12/25 17:03:41;;;;;;;;;;;;;;;8.44;100.00;101106.44;5568860;32;33715;-70
2022/12/25 17:06:50;;;;;;;;;;;;;;;8.40;100.00;101109.47;5568889;32;34028;-69
2022/12/25 17:09:57;;;;;;;;;;;;;;;8.38;100.00;101106.12;5568755;32;34302;-69
2022/12/25 17:13:04;;;;;;;;;;;;;;;8.38;100.00;101108.78;5568720;32;33768;-69
2022/12/25 17:16:16;;;;;;;;;;;;;;;8.36;100.00;101118.66;5555256;32;34457;-69
2022/12/25 17:19:21;;;;;;;;;;;;;;;8.35;100.00;101111.69;5568548;32;33590;-69
2022/12/25 17:22:29;;;;;;;;;;;;;;;8.37;100.00;101110.59;5570685;32;34258;-69
2022/12/25 17:25:37;;;;;;;;;;;;;;;8.36;100.00;101119.50;5571289;32;33787;-69
2022/12/25 17:28:44;;;;;;;;;;;;;;;8.37;100.00;101115.91;5558124;32;34323;-69
2022/12/25 17:31:53;;;;;;;;;;;;;;;8.42;100.00;101108.41;5557323;32;33575;-69
2022/12/25 17:34:58;;;;;;;;;;;;;;;8.37;100.00;101104.47;5571270;32;34084;-69
2022/12/25 17:38:05;;;;;;;;;;;;;;;8.35;100.00;101104.59;5570966;32;33613;-70
2022/12/25 17:41:10;;;;;;;;;;;;;;;8.40;100.00;101088.34;5544334;32;33150;-69
2022/12/25 17:44:15;;;;;;;;;;;;;;;8.48;100.00;101088.47;5571052;32;33820;-69
2022/12/25 17:47:19;;;;;;;;;;;;;;;8.43;100.00;101075.66;5570998;32;33705;-69
2022/12/25 17:50:24;;;;;;;;;;;;;;;8.44;100.00;101076.50;5570932;32;33686;-69
2022/12/25 17:53:33;;;;;;;;;;;;;;;8.32;100.00;101083.75;5557362;32;34509;-70